Time;durP1;ratioP1;P1;durP2;ratioP2;P2;SDS_P1;SDS_P2;PMS_P1;PMS_P2;Temp;Humidity;BMP_temperature;BMP_pressure;BME280_temperature;BME280_humidity;BME280_pressure;Samples;Min_cycle;Max_cycle;Signal;HPM_P1;HPM_P2
2022/06/11 00:00:35;;;;;;;48.63;6.97;;;14.00;99.90;;;;;;5013546;28;20060;-75
2022/06/11 00:03:03;;;;;;;37.97;6.45;;;14.10;99.90;;;;;;5014723;28;20046;-75
2022/06/11 00:05:31;;;;;;;48.67;7.25;;;13.90;99.90;;;;;;5014785;28;20041;-76
2022/06/11 00:07:59;;;;;;;45.85;6.28;;;13.90;99.90;;;;;;5013467;28;20072;-74
2022/06/11 00:10:27;;;;;;;37.42;6.47;;;13.90;99.90;;;;;;5013729;28;20054;-75
2022/06/11 00:12:54;;;;;;;42.83;6.20;;;13.90;99.90;;;;;;5013920;28;20045;-75
2022/06/11 00:15:22;;;;;;;40.88;6.78;;;13.90;99.90;;;;;;5014790;28;20046;-74
2022/06/11 00:17:52;;;;;;;41.22;6.10;;;13.90;99.90;;;;;;5014588;28;20053;-76
2022/06/11 00:20:20;;;;;;;43.47;6.85;;;13.80;99.90;;;;;;5013586;28;20042;-75
2022/06/11 00:22:47;;;;;;;44.42;6.50;;;13.80;99.90;;;;;;4997745;28;20057;-75
2022/06/11 00:25:15;;;;;;;47.28;6.53;;;13.80;99.90;;;;;;5014696;28;20042;-77
2022/06/11 00:27:43;;;;;;;43.33;7.03;;;13.80;99.90;;;;;;4996455;28;20476;-75
2022/06/11 00:30:11;;;;;;;34.55;5.97;;;13.80;99.90;;;;;;4997277;28;20046;-76
2022/06/11 00:32:39;;;;;;;51.17;7.13;;;13.80;99.90;;;;;;5013512;28;20046;-76
2022/06/11 00:35:08;;;;;;;50.05;6.75;;;13.80;99.90;;;;;;4997593;28;20054;-75
2022/06/11 00:37:36;;;;;;;45.55;7.05;;;13.80;99.90;;;;;;5014481;28;20495;-76
2022/06/11 00:40:06;;;;;;;46.22;6.80;;;13.70;99.90;;;;;;5013231;28;20380;-75
2022/06/11 00:42:35;;;;;;;47.25;6.75;;;13.70;99.90;;;;;;4997439;28;20045;-75
2022/06/11 00:45:16;;;;;;;43.22;6.68;;;13.70;99.90;;;;;;5016739;28;20049;-76
2022/06/11 00:47:47;;;;;;;38.00;6.28;;;13.70;99.90;;;;;;5017037;28;20049;-75
2022/06/11 00:50:20;;;;;;;46.65;6.85;;;13.70;99.90;;;;;;5018258;28;20052;-76
2022/06/11 00:52:52;;;;;;;46.72;6.78;;;13.60;99.90;;;;;;5017164;28;20515;-76
2022/06/11 00:55:30;;;;;;;41.95;6.82;;;13.60;99.90;;;;;;5017827;28;20045;-76
2022/06/11 00:58:04;;;;;;;43.83;6.78;;;13.60;99.90;;;;;;5001113;28;20041;-75
2022/06/11 01:00:40;;;;;;;40.30;7.07;;;13.60;99.90;;;;;;5017001;28;20049;-75
2022/06/11 01:03:10;;;;;;;42.80;7.00;;;13.50;99.90;;;;;;5017929;28;20049;-75
2022/06/11 01:05:42;;;;;;;41.90;6.65;;;13.50;99.90;;;;;;5017683;28;20065;-75
2022/06/11 01:08:29;;;;;;;40.13;6.22;;;13.50;99.90;;;;;;5017450;28;20046;-75
2022/06/11 01:11:19;;;;;;;44.80;6.63;;;13.50;99.90;;;;;;5017970;28;20472;-75
2022/06/11 01:13:59;;;;;;;39.80;6.15;;;13.40;99.90;;;;;;4999418;28;20050;-75
2022/06/11 01:16:34;;;;;;;48.35;7.10;;;13.40;99.90;;;;;;5018120;28;20050;-75
2022/06/11 01:19:19;;;;;;;52.05;6.80;;;13.40;99.90;;;;;;5017824;28;20049;-76
2022/06/11 01:22:07;;;;;;;40.15;6.05;;;13.30;99.90;;;;;;5017580;28;20046;-75
2022/06/11 01:24:44;;;;;;;39.80;6.45;;;13.30;99.90;;;;;;5017254;28;20053;-75
2022/06/11 01:27:15;;;;;;;48.20;6.63;;;13.30;99.90;;;;;;5016345;28;20045;-75
2022/06/11 01:29:56;;;;;;;36.45;6.82;;;13.30;99.90;;;;;;5000163;28;20045;-75
2022/06/11 01:32:40;;;;;;;44.65;6.68;;;13.30;99.90;;;;;;4999935;28;20041;-75
2022/06/11 01:35:23;;;;;;;49.67;7.43;;;13.30;99.90;;;;;;4999966;28;20040;-76
2022/06/11 01:37:57;;;;;;;45.40;6.95;;;13.20;99.90;;;;;;5000283;28;20373;-75
2022/06/11 01:40:53;;;;;;;36.92;6.63;;;13.30;99.90;;;;;;5016156;28;20045;-75
2022/06/11 01:43:29;;;;;;;48.00;7.57;;;13.20;99.90;;;;;;4999689;28;20049;-75
2022/06/11 01:46:02;;;;;;;42.20;6.97;;;13.20;99.90;;;;;;4999381;28;20041;-76
2022/06/11 01:48:30;;;;;;;42.55;6.95;;;13.20;99.90;;;;;;4999919;28;20053;-75
2022/06/11 01:51:07;;;;;;;47.83;6.88;;;13.10;99.90;;;;;;5016931;28;20046;-76
2022/06/11 01:53:43;;;;;;;41.42;6.93;;;13.10;99.90;;;;;;5015747;28;20049;-75
2022/06/11 01:56:36;;;;;;;45.78;6.70;;;13.10;99.90;;;;;;5016957;28;20045;-75
2022/06/11 01:59:26;;;;;;;38.92;6.63;;;13.10;99.90;;;;;;5016872;28;20046;-75
2022/06/11 02:02:46;;;;;;;40.95;6.55;;;13.10;99.90;;;;;;5016531;28;20049;-75
2022/06/11 02:05:44;;;;;;;37.10;6.93;;;13.10;99.90;;;;;;4977699;28;20393;-75
2022/06/11 02:08:29;;;;;;;46.03;7.03;;;13.10;99.90;;;;;;4994308;28;20388;-76
2022/06/11 02:11:03;;;;;;;44.33;6.70;;;13.10;99.90;;;;;;5016452;28;20046;-75
2022/06/11 02:13:37;;;;;;;50.75;6.85;;;13.10;99.90;;;;;;5015677;28;20061;-76
2022/06/11 02:16:10;;;;;;;35.83;6.05;;;13.10;99.90;;;;;;4999282;28;20048;-75
2022/06/11 02:18:40;;;;;;;38.92;7.00;;;13.10;99.90;;;;;;5016220;28;20046;-75
2022/06/11 02:21:12;;;;;;;41.30;6.85;;;13.10;99.90;;;;;;4997912;28;20049;-76
2022/06/11 02:24:03;;;;;;;37.58;6.65;;;13.00;99.90;;;;;;5016638;28;20494;-76
2022/06/11 02:26:36;;;;;;;45.45;7.25;;;13.00;99.90;;;;;;5014973;28;20118;-75
2022/06/11 02:29:07;;;;;;;44.85;7.05;;;13.00;99.90;;;;;;5016238;28;20057;-76
2022/06/11 02:31:41;;;;;;;46.42;6.95;;;12.90;99.90;;;;;;4998827;28;20053;-76
2022/06/11 02:34:10;;;;;;;54.35;7.55;;;12.90;99.90;;;;;;4997899;28;20354;-75
2022/06/11 02:37:08;;;;;;;44.97;6.97;;;12.90;99.90;;;;;;4998624;28;20073;-75
2022/06/11 02:39:38;;;;;;;52.92;7.18;;;12.80;99.90;;;;;;5001075;28;20046;-76
2022/06/11 02:42:08;;;;;;;44.67;6.90;;;12.80;99.90;;;;;;4999070;28;20045;-75
2022/06/11 02:44:36;;;;;;;42.85;7.43;;;12.80;99.90;;;;;;5015919;28;20058;-76
2022/06/11 02:47:04;;;;;;;43.60;6.35;;;12.80;99.90;;;;;;5014642;28;20046;-75
2022/06/11 02:49:35;;;;;;;46.42;6.72;;;12.70;99.90;;;;;;5015577;28;20050;-76
2022/06/11 02:52:11;;;;;;;47.55;7.72;;;12.70;99.90;;;;;;5015753;28;20056;-76
2022/06/11 02:54:39;;;;;;;48.20;7.47;;;12.70;99.90;;;;;;5014676;28;20042;-76
2022/06/11 02:57:08;;;;;;;37.05;6.70;;;12.70;99.90;;;;;;5015689;28;20472;-76
2022/06/11 02:59:36;;;;;;;44.60;7.10;;;12.60;99.90;;;;;;5014415;28;20054;-76
2022/06/11 03:02:04;;;;;;;52.85;7.10;;;12.60;99.90;;;;;;5015123;28;20050;-76
2022/06/11 03:04:32;;;;;;;60.47;8.35;;;12.60;99.90;;;;;;5015363;28;20057;-75
2022/06/11 03:07:01;;;;;;;47.60;6.45;;;12.60;99.90;;;;;;4996683;28;20065;-75
2022/06/11 03:09:31;;;;;;;48.05;7.05;;;12.60;99.90;;;;;;5015588;28;20046;-77
2022/06/11 03:12:00;;;;;;;36.75;6.85;;;12.60;99.90;;;;;;4999172;28;20042;-76
2022/06/11 03:14:28;;;;;;;49.97;7.50;;;12.60;99.90;;;;;;5014206;28;20057;-76
2022/06/11 03:16:55;;;;;;;50.45;6.97;;;12.60;99.90;;;;;;4998139;28;20050;-75
2022/06/11 03:19:23;;;;;;;50.72;7.38;;;12.50;99.90;;;;;;4981180;28;20057;-75
2022/06/11 03:21:55;;;;;;;45.88;7.85;;;12.50;99.90;;;;;;5015320;28;20168;-75
2022/06/11 03:24:24;;;;;;;47.85;7.38;;;12.50;99.90;;;;;;5015287;28;20056;-75
2022/06/11 03:26:53;;;;;;;42.58;7.25;;;12.60;99.90;;;;;;5014161;28;20455;-76
2022/06/11 03:29:23;;;;;;;57.42;7.53;;;12.50;99.90;;;;;;4997757;28;20049;-76
2022/06/11 03:31:51;;;;;;;53.60;7.35;;;12.50;99.90;;;;;;5015689;28;20056;-76
2022/06/11 03:34:19;;;;;;;41.20;7.25;;;12.50;99.90;;;;;;5014300;28;20046;-77
2022/06/11 03:36:48;;;;;;;44.28;6.50;;;12.40;99.90;;;;;;5015004;28;20049;-75
2022/06/11 03:39:16;;;;;;;42.25;7.05;;;12.40;99.90;;;;;;5014124;28;20041;-76
2022/06/11 03:41:45;;;;;;;52.28;7.22;;;12.40;99.90;;;;;;5014894;28;20046;-76
2022/06/11 03:44:12;;;;;;;55.58;8.00;;;12.40;99.90;;;;;;5015240;28;20042;-75
2022/06/11 03:46:40;;;;;;;44.45;7.75;;;12.40;99.90;;;;;;5013980;28;20057;-76
2022/06/11 03:49:08;;;;;;;47.17;7.55;;;12.30;99.90;;;;;;5015115;28;20046;-75
2022/06/11 03:51:36;;;;;;;54.35;8.02;;;12.30;99.90;;;;;;4997693;28;20065;-75
2022/06/11 03:54:03;;;;;;;63.28;8.27;;;12.20;99.90;;;;;;5013709;28;20038;-75
2022/06/11 03:56:31;;;;;;;59.13;8.02;;;12.20;99.90;;;;;;4997624;28;20061;-75
2022/06/11 03:58:59;;;;;;;48.70;7.68;;;12.20;99.90;;;;;;5015289;28;20050;-75
2022/06/11 04:01:28;;;;;;;49.80;7.25;;;12.20;99.90;;;;;;5013580;28;20065;-76
2022/06/11 04:04:00;;;;;;;55.70;8.00;;;12.20;99.90;;;;;;5014689;28;20046;-75
2022/06/11 04:06:35;;;;;;;47.15;7.28;;;12.20;99.90;;;;;;5013666;28;20056;-76
2022/06/11 04:09:06;;;;;;;44.72;7.75;;;12.20;99.90;;;;;;5014599;28;20050;-75
2022/06/11 04:11:35;;;;;;;49.72;8.23;;;12.20;99.90;;;;;;4997921;28;20061;-76
2022/06/11 04:14:02;;;;;;;;;;;12.20;99.90;;;;;;5014171;28;20049;-75
2022/06/11 04:16:45;;;;;;;47.58;7.38;;;12.20;99.90;;;;;;5014635;28;20347;-76
2022/06/11 04:19:24;;;;;;;37.67;7.00;;;12.30;99.90;;;;;;5014897;28;20056;-75
2022/06/11 04:21:54;;;;;;;56.90;8.43;;;12.30;99.90;;;;;;5018708;28;20054;-75
2022/06/11 04:24:22;;;;;;;43.42;7.43;;;12.30;99.90;;;;;;5018454;28;20045;-76
2022/06/11 04:26:52;;;;;;;42.08;7.35;;;12.30;99.90;;;;;;5017320;28;20054;-75
2022/06/11 04:29:24;;;;;;;52.22;7.30;;;12.30;99.90;;;;;;5019101;28;20046;-75
2022/06/11 04:31:54;;;;;;;44.38;7.38;;;12.40;99.90;;;;;;5018191;28;20056;-76
2022/06/11 04:34:23;;;;;;;47.25;7.55;;;12.40;99.90;;;;;;5017237;28;20038;-76
2022/06/11 04:36:52;;;;;;;47.53;7.25;;;12.40;99.90;;;;;;5000932;28;20053;-76
2022/06/11 04:39:23;;;;;;;60.35;8.48;;;12.40;99.90;;;;;;5017536;28;20145;-76
2022/06/11 04:41:51;;;;;;;50.80;7.60;;;12.40;99.90;;;;;;5018389;28;20049;-77
2022/06/11 04:44:19;;;;;;;44.92;6.70;;;12.40;99.90;;;;;;5018056;28;20041;-77
2022/06/11 04:46:47;;;;;;;;;;;12.50;99.90;;;;;;5017834;28;20054;-76
2022/06/11 04:49:15;;;;;;;46.65;7.20;;;12.50;99.90;;;;;;5017988;28;19921;-75
2022/06/11 04:51:43;;;;;;;48.25;7.50;;;12.60;99.90;;;;;;5017953;28;20056;-78
2022/06/11 04:54:11;;;;;;;46.58;6.95;;;12.60;99.90;;;;;;5017025;28;20049;-76
2022/06/11 04:56:40;;;;;;;52.20;7.38;;;12.60;99.90;;;;;;5017821;28;20061;-76
2022/06/11 04:59:08;;;;;;;49.60;6.90;;;12.60;99.90;;;;;;5016577;28;20049;-78
2022/06/11 05:01:40;;;;;;;41.97;6.82;;;12.70;99.90;;;;;;5035055;28;20049;-78
2022/06/11 05:04:09;;;;;;;47.67;6.97;;;12.70;99.90;;;;;;5037704;28;20049;-75
2022/06/11 05:06:41;;;;;;;36.55;6.28;;;12.80;99.90;;;;;;5036516;28;20064;-75
2022/06/11 05:09:12;;;;;;;44.90;6.70;;;12.80;99.90;;;;;;5037767;28;20045;-78
2022/06/11 05:11:41;;;;;;;40.28;5.97;;;12.90;99.90;;;;;;5037462;28;20048;-77
2022/06/11 05:14:08;;;;;;;34.65;6.25;;;12.80;99.90;;;;;;5035637;28;20041;-77
2022/06/11 05:16:37;;;;;;;34.83;6.45;;;12.90;99.90;;;;;;5037397;28;20053;-77
2022/06/11 05:19:05;;;;;;;41.42;6.55;;;12.90;99.90;;;;;;5036886;28;20060;-75
2022/06/11 05:21:33;;;;;;;37.72;6.60;;;12.90;99.90;;;;;;5037105;28;20057;-76
2022/06/11 05:24:01;;;;;;;35.40;6.20;;;13.00;99.90;;;;;;5036645;28;20053;-77
2022/06/11 05:26:42;;;;;;;38.50;5.95;;;13.00;99.90;;;;;;5036064;28;20045;-76
2022/06/11 05:29:15;;;;;;;43.42;6.00;;;13.00;99.90;;;;;;5052995;28;20045;-78
2022/06/11 05:31:43;;;;;;;38.90;6.38;;;13.10;99.90;;;;;;5036870;28;20082;-78
2022/06/11 05:34:10;;;;;;;35.50;5.72;;;13.20;99.90;;;;;;5035186;28;20057;-75
2022/06/11 05:36:38;;;;;;;29.48;5.88;;;13.20;99.90;;;;;;5036803;28;20042;-76
2022/06/11 05:39:06;;;;;;;37.22;5.43;;;13.30;99.90;;;;;;5035178;28;20049;-75
2022/06/11 05:41:33;;;;;;;39.78;5.70;;;13.30;99.90;;;;;;5037052;28;20056;-75
2022/06/11 05:44:01;;;;;;;31.90;5.57;;;13.40;99.90;;;;;;5036085;28;20049;-77
2022/06/11 05:46:31;;;;;;;35.13;5.72;;;13.40;99.90;;;;;;5035516;28;20061;-76
2022/06/11 05:49:06;;;;;;;29.98;5.30;;;13.50;99.90;;;;;;5036006;28;20064;-76
2022/06/11 05:51:37;;;;;;;37.75;5.97;;;13.60;99.90;;;;;;5036712;28;20045;-76
2022/06/11 05:54:09;;;;;;;36.33;4.85;;;13.60;99.90;;;;;;5035811;28;20041;-75
2022/06/11 05:56:37;;;;;;;32.13;5.28;;;13.60;99.90;;;;;;5036832;28;20041;-77
2022/06/11 05:59:12;;;;;;;34.25;5.25;;;13.70;99.90;;;;;;5035079;28;20052;-75
2022/06/11 06:01:41;;;;;;;29.30;4.70;;;13.80;99.90;;;;;;5035438;28;20049;-75
2022/06/11 06:04:09;;;;;;;34.35;5.03;;;13.80;99.90;;;;;;5035885;28;20041;-75
2022/06/11 06:06:37;;;;;;;;;;;13.80;99.90;;;;;;5035695;28;20046;-75
2022/06/11 06:09:05;;;;;;;30.10;5.43;;;13.90;99.90;;;;;;5036272;28;19953;-75
2022/06/11 06:11:33;;;;;;;37.33;5.97;;;13.90;99.90;;;;;;5035581;28;20072;-76
2022/06/11 06:14:01;;;;;;;32.45;4.82;;;14.00;99.90;;;;;;5035235;28;20053;-76
2022/06/11 06:16:30;;;;;;;32.65;5.53;;;14.00;99.90;;;;;;5035665;28;20092;-75
2022/06/11 06:18:59;;;;;;;32.80;5.47;;;13.90;99.90;;;;;;5035865;28;20045;-75
2022/06/11 06:21:31;;;;;;;30.25;5.18;;;14.10;99.90;;;;;;5034893;28;20057;-75
2022/06/11 06:23:59;;;;;;;30.50;4.55;;;14.10;99.90;;;;;;5036382;28;20049;-77
2022/06/11 06:26:26;;;;;;;35.03;5.18;;;14.20;99.90;;;;;;5035021;28;20061;-76
2022/06/11 06:28:54;;;;;;;40.47;5.32;;;14.30;99.90;;;;;;5035222;28;20064;-77
2022/06/11 06:31:22;;;;;;;33.42;5.13;;;14.30;99.90;;;;;;5034971;28;20069;-75
2022/06/11 06:33:56;;;;;;;30.35;5.47;;;14.40;99.90;;;;;;5033874;28;20051;-76
2022/06/11 06:36:24;;;;;;;34.30;5.75;;;14.40;99.90;;;;;;5036155;28;20371;-76
2022/06/11 06:38:52;;;;;;;32.30;5.20;;;14.50;99.90;;;;;;5035712;28;20057;-75
2022/06/11 06:41:21;;;;;;;35.42;5.05;;;14.60;99.90;;;;;;5033879;28;20057;-76
2022/06/11 06:43:49;;;;;;;30.45;4.63;;;14.60;99.90;;;;;;5036021;28;20052;-74
2022/06/11 06:46:17;;;;;;;36.13;5.15;;;14.60;99.90;;;;;;5034871;28;20052;-75
2022/06/11 06:48:46;;;;;;;28.63;4.70;;;14.70;99.90;;;;;;5035492;28;20050;-77
2022/06/11 06:51:14;;;;;;;36.88;5.32;;;14.70;99.90;;;;;;5035463;28;20049;-78
2022/06/11 06:53:42;;;;;;;33.35;5.32;;;14.70;99.90;;;;;;5034283;28;20052;-76
2022/06/11 06:56:11;;;;;;;27.33;4.80;;;14.80;99.90;;;;;;5035338;28;20045;-77
2022/06/11 06:58:39;;;;;;;28.58;5.03;;;14.80;99.90;;;;;;5034530;28;20359;-75
2022/06/11 07:01:07;;;;;;;35.70;5.45;;;14.90;99.90;;;;;;5019840;28;20065;-75
2022/06/11 07:03:34;;;;;;;25.67;4.50;;;14.90;99.90;;;;;;5015610;28;20384;-77
2022/06/11 07:06:04;;;;;;;33.90;5.20;;;15.00;99.90;;;;;;5014624;28;20057;-77
2022/06/11 07:08:31;;;;;;;30.40;4.85;;;15.00;99.90;;;;;;5015522;28;20333;-78
2022/06/11 07:10:59;;;;;;;35.13;4.90;;;15.00;99.90;;;;;;4998347;28;20046;-78
2022/06/11 07:13:27;;;;;;;28.73;4.78;;;15.10;99.90;;;;;;5014686;28;20049;-77
2022/06/11 07:15:56;;;;;;;28.60;4.22;;;15.10;99.90;;;;;;5015375;28;20049;-78
2022/06/11 07:18:52;;;;;;;28.70;4.80;;;15.10;99.90;;;;;;5015240;28;20045;-79
2022/06/11 07:21:24;;;;;;;28.75;5.00;;;15.20;99.90;;;;;;5012804;28;20060;-77
2022/06/11 07:23:57;;;;;;;25.75;4.18;;;15.20;99.90;;;;;;4998325;28;20403;-76
2022/06/11 07:26:33;;;;;;;27.20;4.20;;;15.30;99.90;;;;;;5014397;28;20053;-76
2022/06/11 07:29:06;;;;;;;27.15;4.43;;;15.30;99.90;;;;;;5015381;28;20049;-78
2022/06/11 07:31:35;;;;;;;32.67;4.30;;;15.40;99.90;;;;;;5015342;28;20042;-75
2022/06/11 07:34:02;;;;;;;;;;;15.40;99.90;;;;;;4996620;28;20057;-76
2022/06/11 07:36:30;;;;;;;;;;;15.50;99.90;;;;;;5015285;28;20374;-75
2022/06/11 07:38:58;;;;;;;23.77;3.75;;;16.40;99.90;;;;;;4997753;28;19933;-75
2022/06/11 07:41:27;;;;;;;24.90;4.13;;;15.70;99.90;;;;;;4996433;28;20045;-77
2022/06/11 07:43:55;;;;;;;21.77;3.70;;;15.70;99.90;;;;;;5014457;28;20481;-75
2022/06/11 07:46:23;;;;;;;31.48;4.57;;;15.70;99.90;;;;;;4995967;28;20397;-75
2022/06/11 07:48:51;;;;;;;25.40;3.83;;;15.70;99.90;;;;;;4997578;28;20053;-74
2022/06/11 07:51:18;;;;;;;22.05;4.35;;;15.80;99.90;;;;;;5014657;28;20495;-76
2022/06/11 07:53:48;;;;;;;24.02;4.47;;;15.80;99.90;;;;;;4996119;28;20049;-74
2022/06/11 07:56:17;;;;;;;26.27;4.88;;;15.80;99.90;;;;;;5014994;28;20455;-74
2022/06/11 07:58:46;;;;;;;27.20;4.55;;;16.00;99.90;;;;;;5014580;28;20050;-74
2022/06/11 08:01:14;;;;;;;24.73;4.00;;;16.00;99.90;;;;;;5013162;28;20046;-74
2022/06/11 08:03:43;;;;;;;22.63;3.97;;;16.10;99.90;;;;;;5014695;28;20376;-74
2022/06/11 08:06:11;;;;;;;24.30;4.32;;;16.20;99.90;;;;;;4980162;28;20050;-74
2022/06/11 08:08:41;;;;;;;27.75;4.13;;;16.20;99.90;;;;;;5014341;28;20053;-74
2022/06/11 08:11:10;;;;;;;24.63;3.90;;;16.30;99.90;;;;;;5014544;28;20084;-73
2022/06/11 08:13:38;;;;;;;21.50;4.15;;;16.40;99.90;;;;;;5028881;28;20046;-75
2022/06/11 08:16:06;;;;;;;27.08;4.50;;;16.40;99.90;;;;;;5014187;28;20049;-74
2022/06/11 08:18:34;;;;;;;;;;;16.50;99.90;;;;;;4981702;28;20045;-75
2022/06/11 08:21:01;;;;;;;24.02;4.00;;;16.50;99.90;;;;;;5013223;28;19921;-75
2022/06/11 08:23:30;;;;;;;21.10;3.78;;;16.50;99.90;;;;;;4997711;28;20048;-75
2022/06/11 08:25:57;;;;;;;22.83;3.58;;;16.50;99.90;;;;;;5013027;28;20074;-75
2022/06/11 08:28:26;;;;;;;22.75;4.03;;;16.60;99.90;;;;;;5014693;28;20054;-75
2022/06/11 08:30:53;;;;;;;23.55;3.83;;;16.60;99.90;;;;;;5014493;28;20057;-75
2022/06/11 08:33:21;;;;;;;19.65;3.78;;;16.80;99.90;;;;;;4979819;28;20475;-76
2022/06/11 08:35:51;;;;;;;22.02;4.20;;;16.90;99.90;;;;;;4997061;28;20056;-74
2022/06/11 08:38:19;;;;;;;18.77;3.50;;;17.10;99.90;;;;;;5014624;28;20046;-75
2022/06/11 08:40:53;;;;;;;22.70;3.75;;;17.20;99.00;;;;;;4996324;28;20469;-77
2022/06/11 08:43:28;;;;;;;20.75;3.55;;;17.40;98.50;;;;;;5014531;28;20061;-75
2022/06/11 08:45:58;;;;;;;21.42;3.90;;;17.50;98.20;;;;;;5013271;28;20054;-76
2022/06/11 08:48:47;;;;;;;17.40;3.22;;;17.60;98.10;;;;;;5014370;28;20471;-74
2022/06/11 08:51:32;;;;;;;20.75;3.63;;;17.70;97.00;;;;;;5014533;28;20052;-76
2022/06/11 08:54:04;;;;;;;20.65;3.92;;;17.70;96.80;;;;;;5013322;28;20049;-74
2022/06/11 08:56:50;;;;;;;19.23;3.55;;;17.80;97.30;;;;;;5014404;28;20038;-75
2022/06/11 08:59:46;;;;;;;19.13;3.60;;;17.80;96.50;;;;;;5013304;28;20046;-76
2022/06/11 09:02:32;;;;;;;26.15;3.60;;;17.80;95.40;;;;;;5014430;28;20050;-75
2022/06/11 09:05:21;;;;;;;13.90;3.35;;;17.80;95.90;;;;;;5014733;28;20053;-74
2022/06/11 09:07:51;;;;;;;17.30;3.45;;;17.70;95.30;;;;;;4999488;28;20049;-76
2022/06/11 09:10:34;;;;;;;20.77;3.97;;;17.70;95.90;;;;;;5000726;28;20050;-75
2022/06/11 09:13:10;;;;;;;17.50;3.60;;;17.80;96.20;;;;;;4999137;28;20045;-73
2022/06/11 09:15:55;;;;;;;16.67;3.45;;;18.00;94.90;;;;;;5000861;28;20053;-74
2022/06/11 09:18:44;;;;;;;16.00;3.00;;;18.20;94.80;;;;;;5017998;28;20129;-75
2022/06/11 09:21:42;;;;;;;17.25;3.65;;;18.40;94.40;;;;;;4999369;28;20465;-75
2022/06/11 09:24:34;;;;;;;19.20;3.67;;;18.80;94.50;;;;;;5017457;28;20050;-76
2022/06/11 09:27:10;;;;;;;22.25;4.00;;;19.00;93.80;;;;;;5016988;28;20046;-74
2022/06/11 09:29:45;;;;;;;17.00;3.42;;;19.20;94.30;;;;;;5017825;28;20046;-75
2022/06/11 09:32:19;;;;;;;14.65;3.17;;;19.40;94.30;;;;;;5017557;28;20046;-73
2022/06/11 09:35:12;;;;;;;20.73;3.75;;;19.50;93.60;;;;;;5016426;28;20434;-75
2022/06/11 09:37:45;;;;;;;17.92;3.15;;;19.60;93.30;;;;;;5017169;28;20053;-74
2022/06/11 09:40:25;;;;;;;17.45;3.60;;;19.80;93.60;;;;;;4999195;28;20045;-75
2022/06/11 09:43:12;;;;;;;14.07;3.13;;;20.10;92.30;;;;;;5017192;28;20045;-74
2022/06/11 09:45:50;;;;;;;15.57;3.05;;;20.30;91.30;;;;;;5000063;28;20519;-74
2022/06/11 09:48:23;;;;;;;19.58;3.33;;;20.30;91.90;;;;;;5017026;28;20049;-74
2022/06/11 09:51:02;;;;;;;19.67;3.22;;;20.50;91.50;;;;;;5016742;28;20057;-74
2022/06/11 09:53:48;;;;;;;11.70;2.92;;;20.60;90.60;;;;;;4982842;28;20050;-74
2022/06/11 09:56:29;;;;;;;17.33;3.08;;;20.70;90.40;;;;;;5016881;28;20045;-74
2022/06/11 09:59:30;;;;;;;13.55;3.08;;;20.70;90.10;;;;;;5016788;28;20053;-74
2022/06/11 10:02:18;;;;;;;16.60;3.45;;;20.60;89.90;;;;;;5016592;28;20356;-75
2022/06/11 10:04:48;;;;;;;15.10;3.22;;;20.50;90.60;;;;;;5016735;28;20408;-74
2022/06/11 10:07:30;;;;;;;14.52;3.38;;;20.40;90.30;;;;;;5015273;28;20041;-74
2022/06/11 10:10:14;;;;;;;16.05;3.05;;;20.30;90.00;;;;;;4999360;28;20364;-74
2022/06/11 10:12:55;;;;;;;13.52;3.20;;;20.30;89.70;;;;;;5015585;28;20042;-77
2022/06/11 10:15:36;;;;;;;18.00;3.55;;;20.50;90.70;;;;;;5016418;28;20050;-74
2022/06/11 10:18:24;;;;;;;16.17;3.20;;;20.70;90.50;;;;;;5016246;28;20038;-78
2022/06/11 10:21:03;;;;;;;14.52;2.88;;;20.80;88.70;;;;;;5015066;28;20050;-74
2022/06/11 10:23:55;;;;;;;15.50;3.03;;;20.90;87.90;;;;;;5016430;28;20065;-75
2022/06/11 10:26:43;;;;;;;19.90;2.83;;;21.10;86.80;;;;;;4997760;28;20061;-73
2022/06/11 10:29:24;;;;;;;17.52;2.97;;;21.30;87.20;;;;;;5016218;28;20073;-75
2022/06/11 10:32:04;;;;;;;13.35;2.58;;;21.60;86.90;;;;;;5016228;28;20050;-73
2022/06/11 10:34:32;;;;;;;12.43;2.65;;;21.80;83.30;;;;;;5014832;28;20045;-73
2022/06/11 10:37:04;;;;;;;16.27;2.90;;;21.90;83.90;;;;;;4998743;28;20338;-74
2022/06/11 10:39:40;;;;;;;14.07;2.83;;;21.90;83.70;;;;;;4998110;28;20100;-74
2022/06/11 10:42:31;;;;;;;13.73;3.20;;;22.00;82.30;;;;;;4999432;28;20057;-73
2022/06/11 10:45:00;;;;;;;12.35;3.28;;;22.10;83.20;;;;;;5015774;28;20061;-75
2022/06/11 10:47:36;;;;;;;19.60;3.20;;;22.10;85.10;;;;;;5014673;28;20053;-73
2022/06/11 10:50:09;;;;;;;15.20;3.08;;;22.10;83.30;;;;;;4998752;28;20050;-74
2022/06/11 10:52:42;;;;;;;14.00;2.95;;;21.90;83.40;;;;;;5015051;28;20053;-73
2022/06/11 10:55:15;;;;;;;13.90;2.67;;;21.60;82.20;;;;;;4998932;28;20053;-73
2022/06/11 10:57:46;;;;;;;12.23;2.97;;;21.40;83.30;;;;;;4998714;28;20365;-74
2022/06/11 11:00:40;;;;;;;14.43;2.97;;;21.30;84.60;;;;;;5016366;28;20054;-74
2022/06/11 11:03:29;;;;;;;14.95;3.40;;;21.50;84.60;;;;;;5015611;28;20057;-78
2022/06/11 11:06:04;;;;;;;13.73;2.90;;;21.70;84.10;;;;;;5014410;28;20334;-76
2022/06/11 11:08:35;;;;;;;13.75;3.20;;;21.90;83.70;;;;;;4998817;28;20480;-82
2022/06/11 11:11:10;;;;;;;15.02;3.35;;;22.00;84.10;;;;;;5011074;28;20392;-77
2022/06/11 11:13:43;;;;;;;16.90;3.33;;;21.90;82.80;;;;;;5030240;28;20052;-80
2022/06/11 11:16:15;;;;;;;18.50;3.28;;;21.80;83.20;;;;;;5017665;28;20056;-76
2022/06/11 11:19:03;;;;;;;14.40;2.88;;;21.80;83.80;;;;;;5034923;28;20048;-75
2022/06/11 11:21:37;;;;;;;19.98;3.33;;;21.80;82.60;;;;;;5020244;28;20057;-78
2022/06/11 11:24:11;;;;;;;16.95;3.35;;;21.80;83.20;;;;;;4997664;28;20049;-77
2022/06/11 11:26:54;;;;;;;14.88;3.40;;;21.70;83.00;;;;;;5013023;28;20057;-76
2022/06/11 11:29:47;;;;;;;17.08;3.17;;;21.50;83.30;;;;;;5014912;28;20364;-78
2022/06/11 11:32:39;;;;;;;19.95;3.17;;;21.40;85.20;;;;;;4998172;28;20056;-74
2022/06/11 11:35:26;;;;;;;14.35;3.00;;;21.30;84.30;;;;;;5014834;28;20045;-77
2022/06/11 11:37:58;;;;;;;14.65;3.10;;;21.40;84.10;;;;;;4982255;28;20038;-74
2022/06/11 11:40:33;;;;;;;16.02;3.05;;;21.50;86.50;;;;;;4997159;28;20068;-74
2022/06/11 11:43:09;;;;;;;11.75;3.08;;;21.70;84.30;;;;;;5014783;28;20064;-76
2022/06/11 11:45:56;;;;;;;20.50;3.53;;;21.90;84.80;;;;;;5014965;28;20069;-76
2022/06/11 11:48:48;;;;;;;16.97;3.20;;;22.00;83.00;;;;;;5015009;28;20046;-77
2022/06/11 11:51:36;;;;;;;18.45;3.50;;;22.10;81.50;;;;;;5014901;28;20056;-76
2022/06/11 11:54:05;;;;;;;;;;;22.30;82.10;;;;;;5013997;28;20053;-76
2022/06/11 11:56:55;;;;;;;14.23;2.80;;;22.40;82.30;;;;;;4997843;28;20266;-75
2022/06/11 11:59:32;;;;;;;15.90;3.30;;;22.40;80.00;;;;;;4996887;28;20046;-75
2022/06/11 12:02:37;;;;;;;16.92;3.47;;;22.40;81.20;;;;;;5033439;28;20064;-76
2022/06/11 12:05:24;;;;;;;17.58;3.10;;;22.40;80.20;;;;;;5034380;28;20061;-75
2022/06/11 12:07:54;;;;;;;20.23;3.50;;;22.40;80.40;;;;;;5033439;28;20379;-77
2022/06/11 12:10:39;;;;;;;16.88;3.00;;;22.50;81.40;;;;;;5034234;28;20064;-74
2022/06/11 12:13:42;;;;;;;13.00;3.10;;;22.60;79.70;;;;;;5033619;28;20060;-75
2022/06/11 12:16:18;;;;;;;17.20;3.83;;;22.70;81.40;;;;;;5034596;28;20041;-74
2022/06/11 12:18:50;;;;;;;15.98;3.20;;;22.90;80.60;;;;;;5033953;28;20057;-75
2022/06/11 12:21:25;;;;;;;12.45;3.10;;;22.90;80.40;;;;;;5033163;28;20064;-75
2022/06/11 12:24:07;;;;;;;17.17;3.50;;;23.00;80.60;;;;;;5034586;28;20056;-74
2022/06/11 12:26:40;;;;;;;16.35;3.85;;;23.00;80.40;;;;;;5033229;28;20061;-75
2022/06/11 12:29:41;;;;;;;13.40;3.55;;;22.90;80.50;;;;;;5034145;28;20440;-74
2022/06/11 12:32:28;;;;;;;18.55;3.38;;;22.70;79.30;;;;;;5034159;28;20041;-73
2022/06/11 12:34:58;;;;;;;16.10;3.70;;;22.60;80.60;;;;;;5034082;28;20041;-73
2022/06/11 12:37:37;;;;;;;17.83;3.47;;;22.50;80.70;;;;;;5033295;28;20129;-76
2022/06/11 12:40:29;;;;;;;17.05;4.03;;;22.50;81.00;;;;;;5034052;28;20046;-74
2022/06/11 12:43:27;;;;;;;19.40;4.22;;;22.50;81.50;;;;;;5037145;28;20056;-75
2022/06/11 12:46:17;;;;;;;18.40;5.50;;;22.60;81.50;;;;;;5045277;28;20044;-74
2022/06/11 12:48:54;;;;;;;13.93;3.67;;;22.60;81.90;;;;;;5057500;28;20045;-73
2022/06/11 12:51:53;;;;;;;18.42;4.50;;;22.60;81.80;;;;;;5057654;28;20045;-75
2022/06/11 12:54:45;;;;;;;12.55;3.20;;;22.70;82.20;;;;;;5056335;28;20041;-74
2022/06/11 12:57:20;;;;;;;15.02;3.20;;;22.70;80.50;;;;;;5056623;28;20044;-75
2022/06/11 13:00:17;;;;;;;14.98;4.00;;;22.60;80.70;;;;;;5057198;28;20060;-74
2022/06/11 13:03:03;;;;;;;16.65;3.40;;;22.60;81.30;;;;;;5077514;28;20049;-73
2022/06/11 13:05:53;;;;;;;17.23;3.10;;;22.60;82.00;;;;;;5077093;28;20055;-74
2022/06/11 13:08:32;;;;;;;13.38;2.83;;;22.70;79.40;;;;;;5077446;28;20048;-74
2022/06/11 13:11:25;;;;;;;12.63;2.70;;;22.70;78.20;;;;;;5077736;28;20045;-75
2022/06/11 13:14:11;;;;;;;15.45;3.10;;;22.80;77.70;;;;;;5076321;28;20371;-75
2022/06/11 13:16:45;;;;;;;12.05;2.78;;;23.00;75.20;;;;;;5077171;28;20059;-75